Alta Vista, Iowa
Current Conditions -  °F | °C
As of 6:55 PM on Friday 19 Dec 2014 (Local Time) from KCCY Reporting Station
Overcast Overcast  
Wind Chill: 20°   Ceiling: 1600
Heat Index: 28°   Visibility: 10mi
Dew Point: 27°   Wind: 9mph
Humidity: 93%   Direction: 150°SSE
Pressure: 30.21"   Gusts: NA
Location:  43.2°N, 92.42°W
Report Text: KCCY 200055Z AUTO 15008KT 10SM BKN016 BKN027 OVC037 M02/M03 A3021 RMK AO2
Loading
Personal Weather Stations






























Interactive Weather Map New forecast layout! Learn more

10-Day Weather Forecast

Advertisements
Track Severe Weather on mobile